sensor_id;sensor_type;location;lat;lon;timestamp;pressure;altitude;pressure_sealevel;temperature;humidity
79461;BME280;68929;42.666;23.324;2023-05-29T00:01:13;94336.56;;;16.78;68.08
79461;BME280;68929;42.666;23.324;2023-05-29T00:03:38;94321.03;;;16.70;68.83
79461;BME280;68929;42.666;23.324;2023-05-29T00:06:03;94318.16;;;16.82;67.60
79461;BME280;68929;42.666;23.324;2023-05-29T00:08:31;94321.09;;;16.86;68.10
79461;BME280;68929;42.666;23.324;2023-05-29T00:10:56;94330.28;;;17.05;67.49
79461;BME280;68929;42.666;23.324;2023-05-29T00:13:22;94321.16;;;17.01;68.04
79461;BME280;68929;42.666;23.324;2023-05-29T00:15:48;94316.91;;;17.00;67.67
79461;BME280;68929;42.666;23.324;2023-05-29T00:18:13;94331.88;;;17.06;67.93
79461;BME280;68929;42.666;23.324;2023-05-29T00:20:38;94317.41;;;16.97;67.41
79461;BME280;68929;42.666;23.324;2023-05-29T00:23:04;94341.53;;;17.12;68.21
79461;BME280;68929;42.666;23.324;2023-05-29T00:25:31;94319.09;;;17.08;67.10
79461;BME280;68929;42.666;23.324;2023-05-29T00:27:57;94327.59;;;17.00;67.11
79461;BME280;68929;42.666;23.324;2023-05-29T00:30:22;94338.84;;;17.12;67.43
79461;BME280;68929;42.666;23.324;2023-05-29T00:32:48;94334.03;;;17.09;67.19
79461;BME280;68929;42.666;23.324;2023-05-29T00:35:13;94315.03;;;16.95;67.06
79461;BME280;68929;42.666;23.324;2023-05-29T00:37:39;94330.28;;;17.05;67.34
79461;BME280;68929;42.666;23.324;2023-05-29T00:40:05;94323.34;;;17.04;67.12
79461;BME280;68929;42.666;23.324;2023-05-29T00:42:31;94325.97;;;16.94;67.83
79461;BME280;68929;42.666;23.324;2023-05-29T00:44:57;94302.91;;;16.72;67.08
79461;BME280;68929;42.666;23.324;2023-05-29T00:47:22;94331.72;;;16.70;67.26
79461;BME280;68929;42.666;23.324;2023-05-29T00:49:49;94329.41;;;16.47;67.66
79461;BME280;68929;42.666;23.324;2023-05-29T00:52:17;94324.22;;;16.62;68.67
79461;BME280;68929;42.666;23.324;2023-05-29T00:54:44;94317.88;;;16.37;68.50
79461;BME280;68929;42.666;23.324;2023-05-29T00:57:12;94316.31;;;16.46;68.71
79461;BME280;68929;42.666;23.324;2023-05-29T00:59:37;94317.75;;;16.58;68.49
79461;BME280;68929;42.666;23.324;2023-05-29T01:02:03;94315.66;;;16.65;68.43
79461;BME280;68929;42.666;23.324;2023-05-29T01:04:29;94298.50;;;16.51;68.76
79461;BME280;68929;42.666;23.324;2023-05-29T01:06:58;94313.03;;;16.70;68.70
79461;BME280;68929;42.666;23.324;2023-05-29T01:09:23;94304.50;;;16.73;67.78
79461;BME280;68929;42.666;23.324;2023-05-29T01:20:13;94329.28;;;16.64;69.47
79461;BME280;68929;42.666;23.324;2023-05-29T01:25:46;94325.34;;;16.82;68.39
79461;BME280;68929;42.666;23.324;2023-05-29T01:28:19;94310.91;;;16.77;68.43
79461;BME280;68929;42.666;23.324;2023-05-29T01:30:47;94320.00;;;16.82;67.82
79461;BME280;68929;42.666;23.324;2023-05-29T01:33:12;94328.66;;;16.99;68.32
79461;BME280;68929;42.666;23.324;2023-05-29T01:35:38;94327.00;;;16.93;66.86
79461;BME280;68929;42.666;23.324;2023-05-29T01:38:03;94325.44;;;16.92;67.63
79461;BME280;68929;42.666;23.324;2023-05-29T01:40:28;94315.28;;;16.94;66.89
79461;BME280;68929;42.666;23.324;2023-05-29T01:42:54;94311.13;;;16.66;68.25
79461;BME280;68929;42.666;23.324;2023-05-29T01:45:20;94300.47;;;16.71;68.34
79461;BME280;68929;42.666;23.324;2023-05-29T01:47:46;94292.78;;;16.74;67.85
79461;BME280;68929;42.666;23.324;2023-05-29T01:50:13;94328.63;;;16.94;67.99
79461;BME280;68929;42.666;23.324;2023-05-29T01:52:41;94327.97;;;16.66;67.51
79461;BME280;68929;42.666;23.324;2023-05-29T01:55:07;94315.91;;;16.22;69.24
79461;BME280;68929;42.666;23.324;2023-05-29T01:57:33;94308.50;;;16.34;68.55
79461;BME280;68929;42.666;23.324;2023-05-29T01:59:59;94324.66;;;16.49;67.88
79461;BME280;68929;42.666;23.324;2023-05-29T02:02:26;94306.34;;;16.31;68.20
79461;BME280;68929;42.666;23.324;2023-05-29T02:04:51;94309.00;;;16.31;69.30
79461;BME280;68929;42.666;23.324;2023-05-29T02:07:17;94301.34;;;16.03;69.11
79461;BME280;68929;42.666;23.324;2023-05-29T02:09:42;94316.09;;;15.79;70.07
79461;BME280;68929;42.666;23.324;2023-05-29T02:12:08;94315.56;;;15.82;69.84
79461;BME280;68929;42.666;23.324;2023-05-29T02:14:34;94299.66;;;15.92;70.08
79461;BME280;68929;42.666;23.324;2023-05-29T02:16:59;94304.41;;;15.85;69.74
79461;BME280;68929;42.666;23.324;2023-05-29T02:19:26;94301.78;;;15.90;70.74
79461;BME280;68929;42.666;23.324;2023-05-29T02:21:52;94321.22;;;16.22;70.41
79461;BME280;68929;42.666;23.324;2023-05-29T02:24:17;94285.97;;;16.15;70.02
79461;BME280;68929;42.666;23.324;2023-05-29T02:26:42;94315.47;;;16.35;69.24
79461;BME280;68929;42.666;23.324;2023-05-29T02:29:08;94305.28;;;16.32;69.28
79461;BME280;68929;42.666;23.324;2023-05-29T02:31:33;94304.19;;;16.28;69.36
79461;BME280;68929;42.666;23.324;2023-05-29T02:33:59;94295.72;;;16.36;68.92
79461;BME280;68929;42.666;23.324;2023-05-29T02:36:24;94302.69;;;16.37;69.21
79461;BME280;68929;42.666;23.324;2023-05-29T02:38:53;94312.59;;;16.47;69.10
79461;BME280;68929;42.666;23.324;2023-05-29T02:41:19;94315.00;;;16.48;69.03
79461;BME280;68929;42.666;23.324;2023-05-29T02:43:44;94322.53;;;16.56;68.61
79461;BME280;68929;42.666;23.324;2023-05-29T02:46:09;94326.34;;;16.65;68.44
79461;BME280;68929;42.666;23.324;2023-05-29T02:48:35;94316.75;;;16.64;67.98
79461;BME280;68929;42.666;23.324;2023-05-29T02:51:00;94314.56;;;16.61;68.12
79461;BME280;68929;42.666;23.324;2023-05-29T02:53:25;94311.94;;;16.66;68.02
79461;BME280;68929;42.666;23.324;2023-05-29T02:55:51;94319.47;;;16.74;68.49
79461;BME280;68929;42.666;23.324;2023-05-29T02:58:16;94313.81;;;16.71;67.98
79461;BME280;68929;42.666;23.324;2023-05-29T03:00:42;94273.97;;;16.49;67.79
79461;BME280;68929;42.666;23.324;2023-05-29T03:03:07;94316.03;;;16.42;68.29
79461;BME280;68929;42.666;23.324;2023-05-29T03:05:33;94323.13;;;16.27;68.49
79461;BME280;68929;42.666;23.324;2023-05-29T03:07:59;94330.19;;;16.11;69.00
79461;BME280;68929;42.666;23.324;2023-05-29T03:10:24;94312.91;;;15.82;70.27
79461;BME280;68929;42.666;23.324;2023-05-29T03:12:49;94324.19;;;15.94;70.06
79461;BME280;68929;42.666;23.324;2023-05-29T03:15:16;94312.97;;;15.87;69.42
79461;BME280;68929;42.666;23.324;2023-05-29T03:17:45;94341.63;;;15.75;71.30
79461;BME280;68929;42.666;23.324;2023-05-29T03:20:11;94321.91;;;15.76;71.18
79461;BME280;68929;42.666;23.324;2023-05-29T03:22:36;94283.69;;;15.39;71.32
79461;BME280;68929;42.666;23.324;2023-05-29T03:25:02;94329.19;;;15.54;72.17
79461;BME280;68929;42.666;23.324;2023-05-29T03:27:28;94332.88;;;15.53;72.29
79461;BME280;68929;42.666;23.324;2023-05-29T03:29:55;94315.50;;;15.45;71.10
79461;BME280;68929;42.666;23.324;2023-05-29T03:32:20;94306.25;;;15.31;72.37
79461;BME280;68929;42.666;23.324;2023-05-29T03:34:45;94318.78;;;15.31;72.28
79461;BME280;68929;42.666;23.324;2023-05-29T03:37:13;94331.78;;;15.49;72.10
79461;BME280;68929;42.666;23.324;2023-05-29T03:39:39;94345.94;;;15.54;72.50
79461;BME280;68929;42.666;23.324;2023-05-29T03:42:05;94351.69;;;15.68;71.50
79461;BME280;68929;42.666;23.324;2023-05-29T03:44:30;94328.63;;;15.83;71.37
79461;BME280;68929;42.666;23.324;2023-05-29T03:46:56;94359.66;;;16.26;70.04
79461;BME280;68929;42.666;23.324;2023-05-29T03:49:21;94351.34;;;16.54;68.94
79461;BME280;68929;42.666;23.324;2023-05-29T03:51:46;94335.78;;;16.46;69.14
79461;BME280;68929;42.666;23.324;2023-05-29T03:54:12;94349.00;;;16.26;69.09
79461;BME280;68929;42.666;23.324;2023-05-29T03:56:37;94347.47;;;16.35;69.51
79461;BME280;68929;42.666;23.324;2023-05-29T03:59:03;94348.94;;;16.21;69.68
79461;BME280;68929;42.666;23.324;2023-05-29T04:01:28;94339.78;;;16.07;70.61
79461;BME280;68929;42.666;23.324;2023-05-29T04:03:53;94343.50;;;16.06;70.11
79461;BME280;68929;42.666;23.324;2023-05-29T04:06:19;94335.72;;;15.73;70.65
79461;BME280;68929;42.666;23.324;2023-05-29T04:08:44;94361.84;;;15.97;71.13
79461;BME280;68929;42.666;23.324;2023-05-29T04:11:10;94344.50;;;16.00;71.10
79461;BME280;68929;42.666;23.324;2023-05-29T04:13:37;94365.34;;;16.03;71.24
79461;BME280;68929;42.666;23.324;2023-05-29T04:16:03;94378.47;;;16.41;70.76
79461;BME280;68929;42.666;23.324;2023-05-29T04:18:28;94365.69;;;16.48;69.10
79461;BME280;68929;42.666;23.324;2023-05-29T04:20:54;94351.06;;;16.51;69.53
79461;BME280;68929;42.666;23.324;2023-05-29T04:23:19;94380.25;;;16.62;69.68
79461;BME280;68929;42.666;23.324;2023-05-29T04:25:45;94370.34;;;16.63;69.57
79461;BME280;68929;42.666;23.324;2023-05-29T04:28:11;94377.47;;;16.94;68.74
79461;BME280;68929;42.666;23.324;2023-05-29T04:30:37;94358.06;;;17.04;68.45
79461;BME280;68929;42.666;23.324;2023-05-29T04:33:04;94376.16;;;16.97;68.68
79461;BME280;68929;42.666;23.324;2023-05-29T04:35:30;94386.78;;;16.87;68.75
79461;BME280;68929;42.666;23.324;2023-05-29T04:37:55;94370.72;;;16.76;69.79
79461;BME280;68929;42.666;23.324;2023-05-29T04:40:22;94374.47;;;16.81;69.33
79461;BME280;68929;42.666;23.324;2023-05-29T04:42:47;94387.94;;;17.01;69.24
79461;BME280;68929;42.666;23.324;2023-05-29T04:45:13;94369.91;;;17.23;68.04
79461;BME280;68929;42.666;23.324;2023-05-29T04:47:38;94386.03;;;17.48;67.64
79461;BME280;68929;42.666;23.324;2023-05-29T04:50:10;94390.06;;;17.55;68.27
79461;BME280;68929;42.666;23.324;2023-05-29T04:52:36;94373.31;;;17.75;67.03
79461;BME280;68929;42.666;23.324;2023-05-29T04:55:03;94379.75;;;17.89;66.74
79461;BME280;68929;42.666;23.324;2023-05-29T04:57:37;94368.50;;;18.02;64.67
79461;BME280;68929;42.666;23.324;2023-05-29T05:00:03;94398.78;;;18.28;64.06
79461;BME280;68929;42.666;23.324;2023-05-29T05:02:41;94401.47;;;18.43;63.92
79461;BME280;68929;42.666;23.324;2023-05-29T05:05:12;94387.56;;;18.51;64.75
79461;BME280;68929;42.666;23.324;2023-05-29T05:07:45;94389.44;;;18.46;64.40
79461;BME280;68929;42.666;23.324;2023-05-29T05:10:19;94387.31;;;18.58;64.14
79461;BME280;68929;42.666;23.324;2023-05-29T05:12:45;94413.25;;;18.67;64.67
79461;BME280;68929;42.666;23.324;2023-05-29T05:15:11;94417.00;;;18.71;63.46
79461;BME280;68929;42.666;23.324;2023-05-29T05:17:36;94386.78;;;18.46;62.56
79461;BME280;68929;42.666;23.324;2023-05-29T05:20:03;94396.63;;;18.40;63.48
79461;BME280;68929;42.666;23.324;2023-05-29T05:22:31;94410.84;;;18.71;63.19
79461;BME280;68929;42.666;23.324;2023-05-29T05:24:57;94404.41;;;18.82;61.70
79461;BME280;68929;42.666;23.324;2023-05-29T05:27:24;94396.91;;;18.94;62.10
79461;BME280;68929;42.666;23.324;2023-05-29T05:29:50;94422.06;;;18.93;62.59
79461;BME280;68929;42.666;23.324;2023-05-29T05:32:16;94395.88;;;18.60;63.20
79461;BME280;68929;42.666;23.324;2023-05-29T05:34:41;94421.56;;;18.66;63.53
79461;BME280;68929;42.666;23.324;2023-05-29T05:37:11;94415.41;;;18.75;63.24
79461;BME280;68929;42.666;23.324;2023-05-29T05:39:36;94413.53;;;18.81;63.45
79461;BME280;68929;42.666;23.324;2023-05-29T05:42:11;94395.31;;;18.53;63.29
79461;BME280;68929;42.666;23.324;2023-05-29T05:44:37;94406.59;;;18.65;63.63
79461;BME280;68929;42.666;23.324;2023-05-29T05:47:02;94400.94;;;18.76;62.75
79461;BME280;68929;42.666;23.324;2023-05-29T05:49:27;94412.47;;;18.67;62.62
79461;BME280;68929;42.666;23.324;2023-05-29T05:51:53;94396.91;;;18.59;63.50
79461;BME280;68929;42.666;23.324;2023-05-29T05:54:19;94384.34;;;18.59;62.88
79461;BME280;68929;42.666;23.324;2023-05-29T05:56:44;94400.69;;;18.63;62.52
79461;BME280;68929;42.666;23.324;2023-05-29T05:59:10;94426.34;;;18.89;62.81
79461;BME280;68929;42.666;23.324;2023-05-29T06:01:36;94423.34;;;19.21;61.63
79461;BME280;68929;42.666;23.324;2023-05-29T06:04:02;94415.44;;;19.69;60.65
79461;BME280;68929;42.666;23.324;2023-05-29T06:06:27;94405.69;;;19.88;60.35
79461;BME280;68929;42.666;23.324;2023-05-29T06:09:00;94386.09;;;19.24;60.29
79461;BME280;68929;42.666;23.324;2023-05-29T06:11:25;94415.56;;;19.24;60.42
79461;BME280;68929;42.666;23.324;2023-05-29T06:13:51;94409.00;;;18.56;62.13
79461;BME280;68929;42.666;23.324;2023-05-29T06:16:32;94413.44;;;19.21;62.93
79461;BME280;68929;42.666;23.324;2023-05-29T06:18:58;94410.63;;;19.61;61.61
79461;BME280;68929;42.666;23.324;2023-05-29T06:21:23;94411.88;;;19.84;60.25
79461;BME280;68929;42.666;23.324;2023-05-29T06:23:49;94416.41;;;19.93;59.09
79461;BME280;68929;42.666;23.324;2023-05-29T06:26:14;94426.75;;;19.56;61.23
79461;BME280;68929;42.666;23.324;2023-05-29T06:28:41;94426.16;;;19.69;59.65
79461;BME280;68929;42.666;23.324;2023-05-29T06:31:17;94420.59;;;20.10;58.89
79461;BME280;68929;42.666;23.324;2023-05-29T06:33:49;94432.72;;;19.97;59.03
79461;BME280;68929;42.666;23.324;2023-05-29T06:36:15;94438.25;;;19.67;59.93
79461;BME280;68929;42.666;23.324;2023-05-29T06:38:50;94411.09;;;19.83;58.04
79461;BME280;68929;42.666;23.324;2023-05-29T06:41:15;94422.31;;;19.90;59.17
79461;BME280;68929;42.666;23.324;2023-05-29T06:43:46;94432.66;;;20.07;58.84
79461;BME280;68929;42.666;23.324;2023-05-29T06:46:12;94399.03;;;19.76;58.82
79461;BME280;68929;42.666;23.324;2023-05-29T06:48:37;94421.53;;;19.90;58.80
79461;BME280;68929;42.666;23.324;2023-05-29T06:51:03;94416.09;;;20.00;57.86
79461;BME280;68929;42.666;23.324;2023-05-29T06:53:37;94430.94;;;20.70;57.87
79461;BME280;68929;42.666;23.324;2023-05-29T06:56:04;94419.22;;;20.90;57.39
79461;BME280;68929;42.666;23.324;2023-05-29T06:58:34;94404.59;;;20.72;56.29
79461;BME280;68929;42.666;23.324;2023-05-29T07:01:05;94413.53;;;20.29;57.33
79461;BME280;68929;42.666;23.324;2023-05-29T07:03:37;94415.81;;;19.97;58.71
79461;BME280;68929;42.666;23.324;2023-05-29T07:06:03;94419.31;;;19.33;58.92
79461;BME280;68929;42.666;23.324;2023-05-29T07:08:29;94433.25;;;19.30;60.15
79461;BME280;68929;42.666;23.324;2023-05-29T07:10:59;94386.09;;;19.34;61.02
79461;BME280;68929;42.666;23.324;2023-05-29T07:13:25;94427.78;;;19.65;58.99
79461;BME280;68929;42.666;23.324;2023-05-29T07:15:51;94400.19;;;19.65;59.38
79461;BME280;68929;42.666;23.324;2023-05-29T07:18:17;94418.34;;;19.78;58.03
79461;BME280;68929;42.666;23.324;2023-05-29T07:20:47;94425.63;;;19.67;59.10
79461;BME280;68929;42.666;23.324;2023-05-29T07:23:12;94439.84;;;19.68;59.15
79461;BME280;68929;42.666;23.324;2023-05-29T07:25:46;94436.56;;;19.81;59.26
79461;BME280;68929;42.666;23.324;2023-05-29T07:28:11;94400.47;;;20.12;57.98
79461;BME280;68929;42.666;23.324;2023-05-29T07:30:37;94409.19;;;20.33;57.38
79461;BME280;68929;42.666;23.324;2023-05-29T07:33:02;94428.34;;;20.21;58.65
79461;BME280;68929;42.666;23.324;2023-05-29T07:35:28;94418.66;;;20.25;57.86
79461;BME280;68929;42.666;23.324;2023-05-29T07:37:54;94430.69;;;20.28;57.23
79461;BME280;68929;42.666;23.324;2023-05-29T07:40:19;94425.44;;;20.03;57.49
79461;BME280;68929;42.666;23.324;2023-05-29T07:42:45;94418.63;;;19.71;58.67
79461;BME280;68929;42.666;23.324;2023-05-29T07:45:12;94431.91;;;20.02;59.71
79461;BME280;68929;42.666;23.324;2023-05-29T07:47:37;94420.56;;;20.20;58.72
79461;BME280;68929;42.666;23.324;2023-05-29T07:50:17;94422.63;;;20.28;57.30
79461;BME280;68929;42.666;23.324;2023-05-29T07:52:48;94414.31;;;19.85;58.50
79461;BME280;68929;42.666;23.324;2023-05-29T07:55:13;94422.00;;;19.97;60.20
79461;BME280;68929;42.666;23.324;2023-05-29T07:57:42;94429.72;;;20.09;57.60
79461;BME280;68929;42.666;23.324;2023-05-29T08:00:10;94410.69;;;20.05;57.91
79461;BME280;68929;42.666;23.324;2023-05-29T08:02:38;94415.31;;;20.38;57.03
79461;BME280;68929;42.666;23.324;2023-05-29T08:05:03;94432.22;;;20.44;57.58
79461;BME280;68929;42.666;23.324;2023-05-29T08:07:29;94405.50;;;20.24;56.73
79461;BME280;68929;42.666;23.324;2023-05-29T08:10:00;94428.59;;;20.25;58.27
79461;BME280;68929;42.666;23.324;2023-05-29T08:12:26;94414.09;;;20.16;59.32
79461;BME280;68929;42.666;23.324;2023-05-29T08:14:56;94422.84;;;20.41;58.73
79461;BME280;68929;42.666;23.324;2023-05-29T08:17:30;94419.41;;;20.36;57.55
79461;BME280;68929;42.666;23.324;2023-05-29T08:19:55;94416.97;;;19.85;57.98
79461;BME280;68929;42.666;23.324;2023-05-29T08:22:32;94416.16;;;19.90;58.37
79461;BME280;68929;42.666;23.324;2023-05-29T08:25:05;94418.44;;;20.12;56.94
79461;BME280;68929;42.666;23.324;2023-05-29T08:27:31;94430.94;;;20.70;57.35
79461;BME280;68929;42.666;23.324;2023-05-29T08:29:56;94425.75;;;21.12;55.71
79461;BME280;68929;42.666;23.324;2023-05-29T08:32:22;94435.19;;;21.57;54.73
79461;BME280;68929;42.666;23.324;2023-05-29T08:34:47;94411.41;;;21.45;55.17
79461;BME280;68929;42.666;23.324;2023-05-29T08:37:26;94422.06;;;21.56;55.05
79461;BME280;68929;42.666;23.324;2023-05-29T08:39:53;94419.88;;;21.58;53.60
79461;BME280;68929;42.666;23.324;2023-05-29T08:42:29;94437.03;;;21.62;55.48
79461;BME280;68929;42.666;23.324;2023-05-29T08:44:56;94420.13;;;21.37;53.46
79461;BME280;68929;42.666;23.324;2023-05-29T08:47:40;94426.75;;;21.21;54.21
79461;BME280;68929;42.666;23.324;2023-05-29T08:50:11;94417.63;;;21.17;54.23
79461;BME280;68929;42.666;23.324;2023-05-29T08:52:42;94431.06;;;21.17;54.15
79461;BME280;68929;42.666;23.324;2023-05-29T08:55:08;94381.13;;;20.83;54.54
79461;BME280;68929;42.666;23.324;2023-05-29T08:57:34;94393.81;;;20.77;53.27
79461;BME280;68929;42.666;23.324;2023-05-29T09:00:22;94385.31;;;21.22;52.41
79461;BME280;68929;42.666;23.324;2023-05-29T09:02:53;94402.19;;;21.52;52.53
79461;BME280;68929;42.666;23.324;2023-05-29T09:05:21;94401.94;;;21.72;52.87
79461;BME280;68929;42.666;23.324;2023-05-29T09:08:02;94390.38;;;21.53;51.00
79461;BME280;68929;42.666;23.324;2023-05-29T09:10:33;94405.91;;;22.21;51.19
79461;BME280;68929;42.666;23.324;2023-05-29T09:12:59;94405.13;;;22.72;46.86
79461;BME280;68929;42.666;23.324;2023-05-29T09:15:24;94392.28;;;23.15;49.63
79461;BME280;68929;42.666;23.324;2023-05-29T09:17:55;94402.63;;;23.40;47.56
79461;BME280;68929;42.666;23.324;2023-05-29T09:20:39;94401.59;;;22.90;48.93
79461;BME280;68929;42.666;23.324;2023-05-29T09:23:13;94396.34;;;22.98;46.96
79461;BME280;68929;42.666;23.324;2023-05-29T09:25:46;94384.16;;;23.01;46.67
79461;BME280;68929;42.666;23.324;2023-05-29T09:28:23;94383.25;;;23.38;46.35
79461;BME280;68929;42.666;23.324;2023-05-29T09:30:49;94376.53;;;23.76;44.39
79461;BME280;68929;42.666;23.324;2023-05-29T09:33:22;94340.56;;;24.16;44.99
79461;BME280;68929;42.666;23.324;2023-05-29T09:35:58;94363.03;;;24.61;42.78
79461;BME280;68929;42.666;23.324;2023-05-29T09:38:26;94376.53;;;24.83;42.80
79461;BME280;68929;42.666;23.324;2023-05-29T09:41:09;94360.47;;;24.20;42.84
79461;BME280;68929;42.666;23.324;2023-05-29T09:43:38;94368.50;;;23.98;44.50
79461;BME280;68929;42.666;23.324;2023-05-29T09:46:09;94363.38;;;22.88;46.87
79461;BME280;68929;42.666;23.324;2023-05-29T09:48:48;94363.97;;;22.34;47.58
79461;BME280;68929;42.666;23.324;2023-05-29T09:51:21;94371.97;;;22.39;48.01
79461;BME280;68929;42.666;23.324;2023-05-29T09:53:57;94357.09;;;22.60;49.74
79461;BME280;68929;42.666;23.324;2023-05-29T09:56:32;94362.38;;;22.84;46.40
79461;BME280;68929;42.666;23.324;2023-05-29T09:58:58;94352.22;;;22.44;47.86
79461;BME280;68929;42.666;23.324;2023-05-29T10:01:24;94351.41;;;22.43;48.79
79461;BME280;68929;42.666;23.324;2023-05-29T10:03:50;94322.72;;;21.83;50.63
79461;BME280;68929;42.666;23.324;2023-05-29T10:06:18;94327.56;;;21.81;49.12
79461;BME280;68929;42.666;23.324;2023-05-29T10:09:00;94322.22;;;22.50;47.15
79461;BME280;68929;42.666;23.324;2023-05-29T10:11:26;94322.88;;;23.61;46.26
79461;BME280;68929;42.666;23.324;2023-05-29T10:13:53;94344.50;;;23.97;44.83
79461;BME280;68929;42.666;23.324;2023-05-29T10:16:23;94352.03;;;23.32;44.77
79461;BME280;68929;42.666;23.324;2023-05-29T10:19:16;94337.81;;;22.85;45.98
79461;BME280;68929;42.666;23.324;2023-05-29T10:21:43;94336.06;;;22.44;47.70
79461;BME280;68929;42.666;23.324;2023-05-29T10:24:11;94326.09;;;22.44;47.71
79461;BME280;68929;42.666;23.324;2023-05-29T10:26:43;94341.66;;;22.47;47.27
79461;BME280;68929;42.666;23.324;2023-05-29T10:32:36;94335.28;;;23.35;46.21
79461;BME280;68929;42.666;23.324;2023-05-29T10:35:20;94337.31;;;22.83;46.09
79461;BME280;68929;42.666;23.324;2023-05-29T10:37:53;94328.50;;;23.37;43.57
79461;BME280;68929;42.666;23.324;2023-05-29T10:40:36;94321.47;;;23.63;45.96
79461;BME280;68929;42.666;23.324;2023-05-29T10:43:04;94337.81;;;23.94;45.03
79461;BME280;68929;42.666;23.324;2023-05-29T10:50:36;94325.53;;;22.79;47.39
79461;BME280;68929;42.666;23.324;2023-05-29T10:53:02;94336.00;;;22.30;49.73
79461;BME280;68929;42.666;23.324;2023-05-29T10:55:41;94324.63;;;21.82;48.24
79461;BME280;68929;42.666;23.324;2023-05-29T10:58:14;94322.91;;;21.68;48.81
79461;BME280;68929;42.666;23.324;2023-05-29T11:00:40;94311.34;;;21.48;48.79
79461;BME280;68929;42.666;23.324;2023-05-29T11:03:14;94319.97;;;21.45;48.97
79461;BME280;68929;42.666;23.324;2023-05-29T11:11:00;94304.81;;;21.73;51.55
79461;BME280;68929;42.666;23.324;2023-05-29T11:13:31;94302.03;;;21.78;52.63
79461;BME280;68929;42.666;23.324;2023-05-29T11:16:19;94318.38;;;21.87;50.58
79461;BME280;68929;42.666;23.324;2023-05-29T11:18:46;94272.22;;;21.37;53.60
79461;BME280;68929;42.666;23.324;2023-05-29T11:24:04;94293.41;;;22.00;53.11
79461;BME280;68929;42.666;23.324;2023-05-29T11:26:37;94304.03;;;22.10;52.41
79461;BME280;68929;42.666;23.324;2023-05-29T11:29:04;94275.53;;;23.28;49.85
79461;BME280;68929;42.666;23.324;2023-05-29T11:31:36;94301.41;;;23.92;49.50
79461;BME280;68929;42.666;23.324;2023-05-29T11:34:18;94283.44;;;23.87;47.40
79461;BME280;68929;42.666;23.324;2023-05-29T11:36:46;94299.06;;;24.79;46.24
79461;BME280;68929;42.666;23.324;2023-05-29T11:39:14;94281.34;;;26.25;43.51
79461;BME280;68929;42.666;23.324;2023-05-29T11:41:50;94303.91;;;27.43;40.40
79461;BME280;68929;42.666;23.324;2023-05-29T11:44:15;94291.00;;;27.99;40.70
79461;BME280;68929;42.666;23.324;2023-05-29T11:46:40;94286.50;;;29.34;37.16
79461;BME280;68929;42.666;23.324;2023-05-29T11:49:10;94277.22;;;28.90;38.18
79461;BME280;68929;42.666;23.324;2023-05-29T11:51:35;94272.38;;;27.59;39.38
79461;BME280;68929;42.666;23.324;2023-05-29T11:54:01;94281.38;;;26.07;42.07
79461;BME280;68929;42.666;23.324;2023-05-29T11:56:28;94282.72;;;25.23;45.06
79461;BME280;68929;42.666;23.324;2023-05-29T11:58:55;94288.13;;;24.61;48.32
79461;BME280;68929;42.666;23.324;2023-05-29T12:01:24;94292.56;;;24.57;50.06
79461;BME280;68929;42.666;23.324;2023-05-29T12:03:50;94297.13;;;23.55;51.58
79461;BME280;68929;42.666;23.324;2023-05-29T12:06:16;94290.56;;;22.74;54.70
79461;BME280;68929;42.666;23.324;2023-05-29T12:08:44;94281.06;;;22.31;58.89
79461;BME280;68929;42.666;23.324;2023-05-29T12:11:11;94276.16;;;21.45;59.24
79461;BME280;68929;42.666;23.324;2023-05-29T12:13:36;94281.13;;;21.14;61.91
79461;BME280;68929;42.666;23.324;2023-05-29T12:16:09;94292.13;;;20.37;62.29
79461;BME280;68929;42.666;23.324;2023-05-29T12:18:34;94312.13;;;20.16;63.71
79461;BME280;68929;42.666;23.324;2023-05-29T12:21:01;94316.16;;;19.79;65.16
79461;BME280;68929;42.666;23.324;2023-05-29T12:23:28;94321.03;;;19.67;63.45
79461;BME280;68929;42.666;23.324;2023-05-29T12:25:54;94298.38;;;19.50;61.67
79461;BME280;68929;42.666;23.324;2023-05-29T12:28:20;94326.41;;;19.72;62.60
79461;BME280;68929;42.666;23.324;2023-05-29T12:30:46;94320.00;;;19.63;62.39
79461;BME280;68929;42.666;23.324;2023-05-29T12:33:32;94342.53;;;19.62;62.45
79461;BME280;68929;42.666;23.324;2023-05-29T12:36:11;94350.00;;;19.70;62.35
79461;BME280;68929;42.666;23.324;2023-05-29T12:38:51;94346.41;;;19.31;65.29
79461;BME280;68929;42.666;23.324;2023-05-29T12:43:48;94354.63;;;18.41;76.62
79461;BME280;68929;42.666;23.324;2023-05-29T12:46:16;94321.72;;;18.00;75.39
79461;BME280;68929;42.666;23.324;2023-05-29T12:48:55;94316.09;;;17.86;76.65
79461;BME280;68929;42.666;23.324;2023-05-29T12:51:26;94346.34;;;18.12;78.31
79461;BME280;68929;42.666;23.324;2023-05-29T12:53:52;94349.81;;;18.07;77.61
79461;BME280;68929;42.666;23.324;2023-05-29T12:56:25;94321.19;;;18.03;76.82
79461;BME280;68929;42.666;23.324;2023-05-29T12:58:51;94315.56;;;17.94;74.56
79461;BME280;68929;42.666;23.324;2023-05-29T13:01:17;94308.09;;;18.01;76.06
79461;BME280;68929;42.666;23.324;2023-05-29T13:03:42;94305.41;;;18.16;74.86
79461;BME280;68929;42.666;23.324;2023-05-29T13:06:11;94315.56;;;18.29;72.91
79461;BME280;68929;42.666;23.324;2023-05-29T13:08:42;94328.75;;;19.25;70.28
79461;BME280;68929;42.666;23.324;2023-05-29T13:11:10;94326.91;;;19.74;70.12
79461;BME280;68929;42.666;23.324;2023-05-29T13:13:35;94339.53;;;20.13;66.03
79461;BME280;68929;42.666;23.324;2023-05-29T13:16:00;94328.56;;;21.90;62.14
79461;BME280;68929;42.666;23.324;2023-05-29T13:18:26;94320.06;;;23.12;55.61
79461;BME280;68929;42.666;23.324;2023-05-29T13:20:51;94329.66;;;24.43;52.74
79461;BME280;68929;42.666;23.324;2023-05-29T13:23:17;94318.13;;;24.07;50.22
79461;BME280;68929;42.666;23.324;2023-05-29T13:25:42;94324.72;;;23.38;52.22